createdAt,value
2018-10-21T00:00:11.519Z,4.20
2018-10-21T00:01:11.543Z,4.13
2018-10-21T00:02:11.608Z,4.14
2018-10-21T00:03:11.598Z,4.28
2018-10-21T00:04:14.443Z,4.24
2018-10-21T00:05:13.382Z,4.14
2018-10-21T00:06:13.013Z,4.17
2018-10-21T00:07:12.417Z,4.13
2018-10-21T00:08:11.580Z,4.16
2018-10-21T00:09:18.040Z,4.17
2018-10-21T00:10:11.581Z,4.18
2018-10-21T00:11:12.846Z,4.17
2018-10-21T00:12:39.292Z,4.14
2018-10-21T00:13:12.400Z,4.17
2018-10-21T00:14:11.406Z,4.21
2018-10-21T00:15:11.549Z,4.21
2018-10-21T00:16:11.418Z,4.18
2018-10-21T00:17:12.370Z,4.11
2018-10-21T00:18:11.377Z,4.18
2018-10-21T00:19:11.359Z,4.17
2018-10-21T00:20:11.367Z,4.16
2018-10-21T00:21:11.443Z,4.17
2018-10-21T00:22:11.408Z,4.18
2018-10-21T00:23:11.882Z,4.14
2018-10-21T00:24:11.385Z,4.17
2018-10-21T00:25:11.876Z,4.17
2018-10-21T00:26:11.294Z,4.17
2018-10-21T00:27:11.457Z,4.14
2018-10-21T00:28:11.857Z,4.10
2018-10-21T00:29:12.261Z,4.18
2018-10-21T00:30:11.328Z,4.16
2018-10-21T00:31:11.213Z,4.14
2018-10-21T00:32:11.282Z,4.20
2018-10-21T00:33:12.052Z,4.20
2018-10-21T00:34:11.200Z,4.25
2018-10-21T00:35:11.206Z,4.13
2018-10-21T00:36:11.214Z,4.17
2018-10-21T00:37:11.837Z,4.18
2018-10-21T00:38:11.201Z,4.21
2018-10-21T00:39:11.358Z,4.17
2018-10-21T00:40:11.158Z,4.14
2018-10-21T00:41:11.104Z,4.08
2018-10-21T00:42:11.843Z,4.10
2018-10-21T00:43:11.129Z,4.08
2018-10-21T00:44:11.110Z,4.10
2018-10-21T00:45:11.164Z,4.21
2018-10-21T00:46:11.006Z,4.25
2018-10-21T00:47:11.042Z,4.21
2018-10-21T00:48:11.810Z,4.06
2018-10-21T00:49:12.828Z,4.14
2018-10-21T00:50:11.073Z,4.11
2018-10-21T00:51:11.180Z,4.14
2018-10-21T00:52:11.037Z,4.11
2018-10-21T00:53:11.020Z,4.24
2018-10-21T00:54:11.011Z,4.18
2018-10-21T00:55:11.028Z,4.20
2018-10-21T00:56:10.931Z,4.11
2018-10-21T00:57:11.000Z,4.08
2018-10-21T00:58:10.921Z,4.11
2018-10-21T00:59:10.880Z,4.08
2018-10-21T01:00:10.897Z,4.13
2018-10-21T01:01:11.288Z,4.06
2018-10-21T01:02:10.873Z,4.10
2018-10-21T01:03:10.985Z,4.00
2018-10-21T01:04:10.851Z,4.16
2018-10-21T01:05:10.879Z,4.18
2018-10-21T01:06:10.839Z,4.11
2018-10-21T01:07:10.821Z,4.11
2018-10-21T01:08:10.822Z,3.99
2018-10-21T01:09:10.887Z,3.99
2018-10-21T01:10:10.781Z,3.99
2018-10-21T01:11:10.790Z,4.02
2018-10-21T01:12:10.754Z,3.99
2018-10-21T01:13:10.742Z,3.99
2018-10-21T01:14:10.717Z,4.02
2018-10-21T01:15:10.937Z,4.02
2018-10-21T01:16:10.689Z,3.99
2018-10-21T01:17:10.720Z,3.99
2018-10-21T01:18:10.675Z,4.04
2018-10-21T01:19:10.748Z,3.95
2018-10-21T01:20:10.641Z,4.04
2018-10-21T01:21:10.742Z,4.08
2018-10-21T01:22:10.661Z,4.10
2018-10-21T01:23:10.661Z,4.06
2018-10-21T01:24:10.624Z,4.11
2018-10-21T01:25:10.655Z,4.20
2018-10-21T01:26:10.628Z,4.20
2018-10-21T01:27:10.742Z,4.08
2018-10-21T01:28:10.568Z,4.13
2018-10-21T01:29:10.571Z,4.06
2018-10-21T01:30:10.564Z,4.06
2018-10-21T01:31:10.619Z,4.07
2018-10-21T01:32:10.548Z,4.02
2018-10-21T01:33:10.679Z,4.07
2018-10-21T01:34:10.555Z,3.93
2018-10-21T01:35:10.572Z,3.90
2018-10-21T01:36:10.537Z,3.99
2018-10-21T01:37:10.584Z,3.96
2018-10-21T01:38:10.536Z,3.99
2018-10-21T01:39:10.697Z,4.00
2018-10-21T01:40:10.452Z,4.06
2018-10-21T01:41:10.495Z,3.96
2018-10-21T01:42:10.423Z,4.00
2018-10-21T01:43:10.419Z,4.00
2018-10-21T01:44:10.424Z,4.11
2018-10-21T01:45:10.507Z,4.08
2018-10-21T01:46:10.373Z,4.07
2018-10-21T01:47:10.426Z,4.08
2018-10-21T01:48:10.376Z,3.99
2018-10-21T01:49:10.363Z,3.98
2018-10-21T01:50:10.354Z,3.92
2018-10-21T01:51:10.451Z,3.92
2018-10-21T01:52:10.321Z,3.80
2018-10-21T01:53:10.363Z,3.92
2018-10-21T01:54:10.323Z,3.81
2018-10-21T01:55:11.579Z,3.80
2018-10-21T01:56:10.247Z,3.82
2018-10-21T01:57:10.369Z,3.80
2018-10-21T01:58:10.273Z,3.99
2018-10-21T01:59:11.249Z,3.84
2018-10-21T02:00:10.338Z,4.06
2018-10-21T02:01:10.266Z,4.00
2018-10-21T02:02:10.249Z,4.04
2018-10-21T02:03:10.324Z,4.04
2018-10-21T02:04:10.246Z,4.06
2018-10-21T02:05:10.259Z,3.99
2018-10-21T02:06:10.351Z,3.99
2018-10-21T02:07:10.253Z,3.98
2018-10-21T02:08:10.337Z,3.95
2018-10-21T02:09:11.441Z,4.06
2018-10-21T02:10:11.392Z,3.98
2018-10-21T02:11:10.291Z,4.00
2018-10-21T02:12:11.261Z,4.02
2018-10-21T02:13:10.328Z,4.04
2018-10-21T02:14:10.873Z,4.02
2018-10-21T02:15:10.298Z,4.02
2018-10-21T02:16:13.969Z,3.92
2018-10-21T02:17:10.030Z,4.00
2018-10-21T02:18:10.075Z,3.98
2018-10-21T02:19:10.023Z,3.99
2018-10-21T02:20:10.046Z,3.92
2018-10-21T02:21:10.087Z,4.02
2018-10-21T02:22:10.034Z,3.95
2018-10-21T02:23:10.044Z,3.93
2018-10-21T02:24:10.014Z,3.84
2018-10-21T02:25:09.976Z,3.88
2018-10-21T02:26:09.996Z,3.77
2018-10-21T02:27:10.019Z,3.81
2018-10-21T02:28:11.739Z,3.92
2018-10-21T02:29:09.940Z,3.90
2018-10-21T02:30:09.945Z,3.89
2018-10-21T02:31:09.935Z,3.95
2018-10-21T02:32:09.907Z,3.92
2018-10-21T02:33:10.820Z,3.98
2018-10-21T02:34:09.930Z,3.88
2018-10-21T02:35:09.923Z,3.90
2018-10-21T02:36:09.828Z,3.90
2018-10-21T02:37:09.853Z,3.82
2018-10-21T02:38:09.893Z,3.92
2018-10-21T02:39:09.929Z,3.86
2018-10-21T02:40:09.776Z,3.93
2018-10-21T02:41:09.774Z,3.88
2018-10-21T02:42:09.817Z,3.82
2018-10-21T02:43:09.797Z,3.93
2018-10-21T02:44:09.787Z,3.93
2018-10-21T02:45:09.917Z,3.80
2018-10-21T02:46:09.770Z,3.90
2018-10-21T02:47:09.735Z,3.95
2018-10-21T02:48:09.719Z,3.96
2018-10-21T02:49:09.839Z,3.95
2018-10-21T02:50:09.705Z,3.99
2018-10-21T02:51:09.739Z,3.88
2018-10-21T02:52:09.686Z,3.92
2018-10-21T02:53:09.660Z,3.90
2018-10-21T02:54:09.733Z,3.90
2018-10-21T02:55:09.655Z,3.95
2018-10-21T02:56:09.663Z,3.80
2018-10-21T02:57:09.786Z,3.81
2018-10-21T02:58:09.619Z,3.81
2018-10-21T02:59:09.592Z,3.86
2018-10-21T03:00:09.645Z,3.84
2018-10-21T03:01:09.590Z,3.81
2018-10-21T03:02:09.602Z,3.93
2018-10-21T03:03:09.701Z,3.93
2018-10-21T03:04:09.586Z,3.82
2018-10-21T03:05:09.530Z,3.82
2018-10-21T03:06:09.593Z,3.86
2018-10-21T03:07:09.529Z,3.82
2018-10-21T03:08:09.577Z,3.88
2018-10-21T03:09:09.595Z,3.86
2018-10-21T03:10:09.603Z,3.82
2018-10-21T03:11:09.526Z,3.99
2018-10-21T03:12:09.550Z,4.10
2018-10-21T03:13:09.513Z,4.21
2018-10-21T03:14:11.546Z,4.07
2018-10-21T03:15:09.562Z,4.08
2018-10-21T03:16:09.466Z,4.10
2018-10-21T03:17:09.479Z,4.00
2018-10-21T03:18:09.482Z,4.00
2018-10-21T03:19:09.409Z,3.98
2018-10-21T03:20:09.396Z,3.78
2018-10-21T03:21:09.442Z,3.82
2018-10-21T03:22:09.320Z,3.81
2018-10-21T03:23:09.333Z,3.82
2018-10-21T03:24:09.373Z,3.72
2018-10-21T03:25:09.364Z,3.81
2018-10-21T03:26:09.346Z,3.78
2018-10-21T03:27:09.491Z,3.71
2018-10-21T03:28:09.342Z,3.67
2018-10-21T03:29:09.282Z,3.63
2018-10-21T03:30:09.289Z,3.70
2018-10-21T03:31:09.277Z,3.77
2018-10-21T03:32:09.305Z,3.60
2018-10-21T03:33:09.424Z,3.70
2018-10-21T03:34:09.428Z,3.57
2018-10-21T03:35:09.245Z,3.64
2018-10-21T03:36:09.228Z,3.67
2018-10-21T03:37:09.252Z,3.57
2018-10-21T03:38:09.243Z,3.56
2018-10-21T03:39:09.183Z,3.59
2018-10-21T03:40:09.254Z,3.59
2018-10-21T03:41:09.206Z,3.62
2018-10-21T03:42:09.205Z,3.60
2018-10-21T03:43:09.165Z,3.56
2018-10-21T03:44:09.148Z,3.62
2018-10-21T03:45:09.138Z,3.77
2018-10-21T03:46:09.199Z,3.74
2018-10-21T03:47:09.082Z,3.75
2018-10-21T03:48:09.229Z,3.82
2018-10-21T03:49:09.792Z,3.82
2018-10-21T03:50:09.022Z,3.77
2018-10-21T03:51:09.078Z,3.78
2018-10-21T03:52:10.096Z,3.80
2018-10-21T03:53:09.114Z,3.81
2018-10-21T03:54:09.091Z,3.78
2018-10-21T03:55:09.054Z,3.88
2018-10-21T03:56:09.052Z,3.78
2018-10-21T03:57:09.004Z,3.68
2018-10-21T03:58:09.070Z,3.70
2018-10-21T03:59:09.127Z,3.75
2018-10-21T04:00:08.976Z,3.68
2018-10-21T04:01:08.945Z,3.62
2018-10-21T04:02:09.014Z,3.80
2018-10-21T04:03:09.039Z,3.74
2018-10-21T04:04:08.972Z,3.68
2018-10-21T04:05:08.908Z,3.81
2018-10-21T04:06:08.933Z,3.72
2018-10-21T04:07:08.925Z,3.71
2018-10-21T04:08:08.879Z,3.60
2018-10-21T04:09:08.926Z,3.75
2018-10-21T04:10:08.886Z,3.80
2018-10-21T04:11:08.826Z,3.77
2018-10-21T04:12:08.811Z,3.93
2018-10-21T04:13:08.861Z,3.96
2018-10-21T04:14:08.801Z,3.90
2018-10-21T04:15:08.823Z,3.81
2018-10-21T04:16:08.884Z,3.90
2018-10-21T04:17:08.760Z,3.84
2018-10-21T04:18:12.284Z,3.80
2018-10-21T04:19:09.877Z,3.75
2018-10-21T04:20:11.043Z,3.74
2018-10-21T04:21:08.849Z,3.77
2018-10-21T04:22:10.730Z,3.84
2018-10-21T04:23:29.857Z,3.86
2018-10-21T04:24:09.962Z,4.00
2018-10-21T04:25:11.850Z,3.98
2018-10-21T04:26:42.599Z,3.84
2018-10-21T04:27:08.856Z,3.84
2018-10-21T04:28:09.903Z,3.84
2018-10-21T04:29:08.632Z,3.81
2018-10-21T04:30:08.625Z,3.88
2018-10-21T04:31:09.243Z,3.81
2018-10-21T04:32:08.624Z,3.70
2018-10-21T04:33:08.599Z,3.78
2018-10-21T04:34:08.600Z,3.78
2018-10-21T04:35:08.589Z,3.78
2018-10-21T04:36:08.554Z,3.80
2018-10-21T04:37:08.562Z,3.74
2018-10-21T04:38:08.551Z,3.71
2018-10-21T04:39:08.506Z,3.72
2018-10-21T04:40:08.571Z,3.67
2018-10-21T04:41:08.498Z,3.68
2018-10-21T04:42:08.542Z,3.62
2018-10-21T04:43:08.485Z,3.71
2018-10-21T04:44:08.518Z,3.60
2018-10-21T04:45:08.448Z,3.59
2018-10-21T04:46:08.468Z,3.57
2018-10-21T04:47:08.548Z,3.56
2018-10-21T04:48:08.452Z,3.63
2018-10-21T04:49:08.465Z,3.62
2018-10-21T04:50:08.438Z,3.68
2018-10-21T04:51:08.393Z,3.64
2018-10-21T04:52:08.429Z,3.67
2018-10-21T04:53:08.360Z,3.74
2018-10-21T04:54:08.374Z,3.84
2018-10-21T04:55:08.387Z,3.93
2018-10-21T04:56:08.308Z,3.78
2018-10-21T04:57:08.518Z,3.82
2018-10-21T04:58:10.757Z,3.75
2018-10-21T04:59:09.732Z,3.77
2018-10-21T05:00:10.161Z,3.74
2018-10-21T05:01:08.332Z,3.78
2018-10-21T05:02:08.277Z,3.72
2018-10-21T05:03:08.254Z,3.63
2018-10-21T05:04:08.363Z,3.59
2018-10-21T05:05:08.242Z,3.68
2018-10-21T05:06:08.205Z,3.62
2018-10-21T05:07:08.192Z,3.63
2018-10-21T05:08:08.201Z,3.67
2018-10-21T05:09:08.200Z,3.57
2018-10-21T05:10:08.457Z,3.53
2018-10-21T05:11:08.176Z,3.54
2018-10-21T05:12:08.177Z,3.62
2018-10-21T05:13:08.148Z,3.68
2018-10-21T05:14:08.118Z,3.59
2018-10-21T05:15:08.210Z,3.62
2018-10-21T05:16:08.187Z,3.75
2018-10-21T05:17:08.118Z,3.75
2018-10-21T05:18:08.091Z,3.72
2018-10-21T05:19:08.077Z,3.60
2018-10-21T05:20:08.120Z,3.49
2018-10-21T05:21:08.043Z,3.39
2018-10-21T05:22:08.119Z,3.44
2018-10-21T05:23:08.025Z,3.62
2018-10-21T05:24:08.086Z,3.63
2018-10-21T05:25:07.996Z,3.71
2018-10-21T05:26:08.052Z,3.67
2018-10-21T05:27:07.990Z,3.57
2018-10-21T05:28:07.980Z,3.54
2018-10-21T05:29:07.968Z,3.52
2018-10-21T05:30:07.970Z,3.41
2018-10-21T05:31:07.952Z,3.41
2018-10-21T05:32:07.991Z,3.35
2018-10-21T05:33:07.958Z,3.44
2018-10-21T05:34:07.960Z,3.42
2018-10-21T05:35:07.909Z,3.41
2018-10-21T05:36:07.899Z,3.41
2018-10-21T05:37:07.865Z,3.45
2018-10-21T05:38:07.938Z,3.44
2018-10-21T05:39:08.026Z,3.42
2018-10-21T05:40:07.886Z,3.49
2018-10-21T05:41:07.827Z,3.57
2018-10-21T05:42:07.830Z,3.52
2018-10-21T05:43:07.800Z,3.57
2018-10-21T05:44:07.849Z,3.62
2018-10-21T05:45:07.813Z,3.64
2018-10-21T05:46:07.841Z,3.53
2018-10-21T05:47:07.817Z,3.52
2018-10-21T05:48:07.759Z,3.46
2018-10-21T05:49:08.184Z,3.45
2018-10-21T05:50:07.902Z,3.44
2018-10-21T05:51:07.829Z,3.44
2018-10-21T05:52:07.791Z,3.35
2018-10-21T05:53:07.695Z,3.35
2018-10-21T05:54:08.619Z,3.42
2018-10-21T05:55:09.176Z,3.52
2018-10-21T05:56:07.688Z,3.46
2018-10-21T05:57:08.679Z,3.50
2018-10-21T05:58:08.806Z,3.50
2018-10-21T05:59:07.733Z,3.49
2018-10-21T06:00:07.715Z,3.41
2018-10-21T06:01:07.872Z,3.33
2018-10-21T06:02:07.794Z,3.41
2018-10-21T06:03:07.728Z,3.37
2018-10-21T06:04:07.854Z,3.31
2018-10-21T06:05:07.676Z,3.26
2018-10-21T06:06:07.756Z,3.39
2018-10-21T06:07:08.291Z,3.45
2018-10-21T06:08:08.693Z,3.41
2018-10-21T06:09:07.643Z,3.45
2018-10-21T06:10:07.706Z,3.41
2018-10-21T06:11:07.668Z,3.54
2018-10-21T06:12:27.368Z,3.62
2018-10-21T06:13:15.379Z,3.86
2018-10-21T06:14:07.595Z,3.93
2018-10-21T06:15:29.649Z,3.82
2018-10-21T06:16:08.622Z,3.96
2018-10-21T06:17:07.789Z,4.11
2018-10-21T06:18:07.581Z,4.16
2018-10-21T06:19:07.518Z,4.13
2018-10-21T06:20:07.533Z,4.16
2018-10-21T06:21:07.551Z,4.18
2018-10-21T06:22:07.639Z,4.18
2018-10-21T06:23:07.557Z,4.20
2018-10-21T06:24:07.425Z,4.24
2018-10-21T06:25:07.427Z,4.24
2018-10-21T06:26:07.443Z,4.25
2018-10-21T06:27:07.463Z,4.34
2018-10-21T06:28:07.399Z,4.32
2018-10-21T06:29:07.437Z,4.36
2018-10-21T06:30:07.526Z,4.50
2018-10-21T06:31:08.230Z,4.49
2018-10-21T06:32:07.392Z,4.57
2018-10-21T06:33:07.468Z,4.56
2018-10-21T06:34:07.330Z,4.57
2018-10-21T06:35:08.359Z,4.67
2018-10-21T06:36:07.305Z,4.67
2018-10-21T06:37:07.356Z,4.69
2018-10-21T06:38:08.247Z,4.69
2018-10-21T06:39:07.301Z,4.67
2018-10-21T06:40:07.268Z,4.75
2018-10-21T06:41:07.372Z,4.72
2018-10-21T06:42:07.424Z,4.74
2018-10-21T06:43:29.392Z,4.74
2018-10-21T06:44:11.323Z,4.77
2018-10-21T06:45:08.316Z,4.75
2018-10-21T06:46:09.794Z,4.86
2018-10-21T06:47:08.772Z,4.80
2018-10-21T06:48:07.245Z,4.90
2018-10-21T06:49:08.298Z,4.80
2018-10-21T06:50:08.790Z,4.86
2018-10-21T06:51:07.286Z,4.77
2018-10-21T06:52:07.132Z,4.84
2018-10-21T06:53:07.160Z,4.86
2018-10-21T06:54:08.221Z,4.96
2018-10-21T06:55:07.180Z,4.90
2018-10-21T06:56:07.132Z,4.91
2018-10-21T06:57:07.271Z,5.01
2018-10-21T06:58:07.088Z,5.08
2018-10-21T06:59:07.109Z,5.12
2018-10-21T07:00:07.097Z,5.22
2018-10-21T07:01:07.078Z,5.27
2018-10-21T07:02:09.824Z,5.30
2018-10-21T07:03:07.051Z,5.32
2018-10-21T07:04:07.111Z,5.51
2018-10-21T07:05:07.076Z,5.52
2018-10-21T07:06:06.996Z,5.51
2018-10-21T07:07:06.952Z,5.62
2018-10-21T07:08:06.940Z,5.66
2018-10-21T07:09:06.936Z,5.65
2018-10-21T07:10:06.938Z,5.70
2018-10-21T07:11:06.893Z,5.75
2018-10-21T07:12:07.176Z,5.83
2018-10-21T07:13:06.919Z,5.63
2018-10-21T07:14:06.867Z,5.67
2018-10-21T07:15:06.869Z,5.65
2018-10-21T07:16:06.920Z,5.60
2018-10-21T07:17:06.894Z,5.66
2018-10-21T07:18:06.801Z,5.80
2018-10-21T07:19:06.793Z,5.75
2018-10-21T07:20:06.859Z,5.90
2018-10-21T07:21:06.836Z,5.95
2018-10-21T07:22:06.851Z,5.96
2018-10-21T07:23:06.764Z,5.98
2018-10-21T07:24:06.766Z,6.06
2018-10-21T07:25:06.737Z,6.03
2018-10-21T07:26:06.729Z,6.10
2018-10-21T07:27:06.815Z,6.19
2018-10-21T07:28:06.865Z,6.21
2018-10-21T07:29:06.721Z,6.20
2018-10-21T07:30:06.696Z,6.40
2018-10-21T07:31:06.730Z,6.63
2018-10-21T07:32:06.662Z,6.68
2018-10-21T07:33:06.630Z,6.40
2018-10-21T07:34:08.384Z,6.81
2018-10-21T07:35:06.714Z,6.71
2018-10-21T07:36:06.620Z,6.69
2018-10-21T07:37:06.755Z,6.86
2018-10-21T07:38:06.692Z,6.94
2018-10-21T07:39:14.176Z,6.93
2018-10-21T07:40:06.588Z,7.21
2018-10-21T07:41:06.627Z,6.71
2018-10-21T07:42:06.561Z,6.73
2018-10-21T07:43:06.509Z,6.86
2018-10-21T07:44:06.750Z,7.21
2018-10-21T07:45:06.629Z,7.76
2018-10-21T07:46:06.616Z,7.95
2018-10-21T07:47:06.473Z,7.69
2018-10-21T07:48:06.468Z,7.50
2018-10-21T07:49:06.496Z,7.52
2018-10-21T07:50:06.444Z,7.85
2018-10-21T07:51:06.488Z,7.95
2018-10-21T07:52:06.460Z,8.40
2018-10-21T07:53:06.428Z,9.12
2018-10-21T07:54:06.440Z,9.48
2018-10-21T07:55:06.547Z,9.73
2018-10-21T07:56:06.399Z,9.55
2018-10-21T07:57:06.377Z,9.78
2018-10-21T07:58:06.374Z,9.85
2018-10-21T07:59:06.403Z,9.92
2018-10-21T08:00:06.450Z,10.13
2018-10-21T08:01:06.445Z,10.14
2018-10-21T08:02:06.306Z,10.26
2018-10-21T08:03:06.328Z,10.31
2018-10-21T08:04:06.313Z,9.49
2018-10-21T08:05:06.299Z,9.45
2018-10-21T08:06:06.292Z,9.32
2018-10-21T08:07:06.328Z,9.85
2018-10-21T08:08:06.233Z,10.39
2018-10-21T08:09:06.242Z,10.60
2018-10-21T08:10:06.305Z,10.62
2018-10-21T08:11:06.287Z,10.65
2018-10-21T08:12:06.233Z,10.88
2018-10-21T08:13:06.183Z,10.99
2018-10-21T08:14:06.193Z,10.91
2018-10-21T08:15:06.276Z,10.88
2018-10-21T08:16:06.238Z,10.65
2018-10-21T08:17:06.217Z,10.81
2018-10-21T08:18:06.200Z,10.54
2018-10-21T08:19:06.189Z,10.29
2018-10-21T08:20:06.189Z,10.17
2018-10-21T08:21:06.252Z,10.16
2018-10-21T08:22:06.178Z,10.52
2018-10-21T08:23:06.141Z,10.68
2018-10-21T08:24:06.247Z,10.80
2018-10-21T08:25:06.166Z,10.73
2018-10-21T08:26:06.128Z,10.76
2018-10-21T08:27:06.118Z,10.78
2018-10-21T08:28:06.217Z,10.88
2018-10-21T08:29:06.053Z,11.03
2018-10-21T08:30:06.064Z,10.73
2018-10-21T08:31:06.070Z,10.66
2018-10-21T08:32:06.091Z,10.16
2018-10-21T08:33:06.056Z,10.42
2018-10-21T08:34:06.086Z,10.54
2018-10-21T08:35:06.052Z,10.47
2018-10-21T08:36:06.080Z,9.99
2018-10-21T08:37:05.985Z,9.92
2018-10-21T08:38:06.171Z,9.53
2018-10-21T08:39:06.051Z,9.37
2018-10-21T08:40:06.033Z,9.03
2018-10-21T08:41:06.004Z,8.65
2018-10-21T08:42:05.941Z,8.49
2018-10-21T08:43:06.130Z,8.39
2018-10-21T08:44:05.950Z,8.36
2018-10-21T08:45:05.941Z,8.52
2018-10-21T08:46:06.225Z,8.57
2018-10-21T08:47:06.701Z,8.78
2018-10-21T08:48:05.887Z,9.60
2018-10-21T08:49:06.014Z,10.28
2018-10-21T08:50:06.068Z,10.66
2018-10-21T08:51:05.876Z,10.90
2018-10-21T08:52:06.822Z,11.38
2018-10-21T08:53:05.869Z,11.39
2018-10-21T08:54:06.002Z,11.21
2018-10-21T08:55:05.859Z,11.17
2018-10-21T08:56:05.897Z,10.91
2018-10-21T08:57:05.841Z,11.23
2018-10-21T08:58:05.850Z,10.80
2018-10-21T08:59:06.711Z,9.95
2018-10-21T09:00:05.957Z,9.58
2018-10-21T09:01:05.850Z,9.15
2018-10-21T09:02:06.852Z,8.80
2018-10-21T09:03:05.742Z,8.68
2018-10-21T09:04:06.058Z,8.54
2018-10-21T09:05:06.213Z,8.47
2018-10-21T09:06:05.803Z,8.31
2018-10-21T09:07:05.741Z,8.39
2018-10-21T09:08:06.723Z,8.29
2018-10-21T09:09:06.663Z,8.25
2018-10-21T09:10:07.011Z,8.20
2018-10-21T09:11:06.320Z,8.32
2018-10-21T09:12:05.663Z,8.39
2018-10-21T09:13:06.220Z,9.44
2018-10-21T09:14:05.638Z,10.01
2018-10-21T09:15:05.795Z,10.44
2018-10-21T09:16:05.706Z,10.91
2018-10-21T09:17:05.669Z,11.06
2018-10-21T09:18:05.602Z,11.20
2018-10-21T09:19:05.587Z,10.55
2018-10-21T09:20:05.572Z,10.29
2018-10-21T09:21:05.577Z,9.74
2018-10-21T09:22:05.645Z,9.55
2018-10-21T09:23:05.553Z,9.32
2018-10-21T09:24:05.537Z,9.19
2018-10-21T09:25:05.517Z,9.35
2018-10-21T09:26:05.486Z,9.30
2018-10-21T09:27:05.534Z,9.20
2018-10-21T09:28:05.646Z,9.17
2018-10-21T09:29:05.514Z,9.23
2018-10-21T09:30:05.459Z,9.48
2018-10-21T09:31:05.513Z,9.85
2018-10-21T09:32:05.393Z,10.38
2018-10-21T09:33:05.670Z,10.88
2018-10-21T09:34:06.543Z,10.98
2018-10-21T09:35:05.452Z,11.03
2018-10-21T09:36:05.394Z,11.16
2018-10-21T09:37:05.452Z,11.20
2018-10-21T09:38:08.571Z,11.38
2018-10-21T09:39:06.150Z,11.57
2018-10-21T09:40:05.327Z,11.53
2018-10-21T09:41:06.176Z,11.59
2018-10-21T09:42:06.226Z,11.26
2018-10-21T09:43:05.367Z,11.45
2018-10-21T09:44:05.549Z,11.84
2018-10-21T09:45:06.341Z,12.04
2018-10-21T09:46:05.270Z,11.84
2018-10-21T09:47:05.299Z,11.97
2018-10-21T09:48:05.339Z,11.75
2018-10-21T09:49:06.259Z,11.82
2018-10-21T09:50:05.521Z,11.84
2018-10-21T09:51:06.420Z,11.79
2018-10-21T09:52:05.342Z,11.94
2018-10-21T09:53:05.205Z,12.16
2018-10-21T09:54:05.302Z,12.12
2018-10-21T09:55:05.264Z,12.22
2018-10-21T09:56:05.167Z,12.44
2018-10-21T09:57:05.115Z,12.43
2018-10-21T09:58:08.314Z,11.93
2018-10-21T09:59:05.114Z,11.96
2018-10-21T10:00:06.938Z,11.82
2018-10-21T10:01:06.224Z,12.08
2018-10-21T10:02:05.679Z,11.77
2018-10-21T10:03:05.210Z,11.78
2018-10-21T10:04:05.139Z,11.90
2018-10-21T10:05:05.204Z,12.25
2018-10-21T10:06:05.692Z,12.03
2018-10-21T10:07:05.116Z,12.30
2018-10-21T10:08:05.022Z,11.81
2018-10-21T10:09:04.982Z,12.03
2018-10-21T10:10:06.867Z,12.29
2018-10-21T10:11:05.164Z,12.21
2018-10-21T10:12:28.705Z,11.98
2018-10-21T10:13:05.542Z,11.70
2018-10-21T10:14:04.937Z,11.36
2018-10-21T10:15:04.968Z,11.46
2018-10-21T10:16:04.954Z,11.16
2018-10-21T10:49:22.492Z,11.81
2018-10-21T10:50:23.294Z,11.84
2018-10-21T10:51:22.374Z,11.81
2018-10-21T10:52:22.343Z,11.42
2018-10-21T10:53:22.326Z,11.26
2018-10-21T10:54:22.362Z,11.28
2018-10-21T10:55:23.153Z,11.20
2018-10-21T10:56:22.307Z,11.13
2018-10-21T10:57:22.297Z,10.81
2018-10-21T10:58:22.260Z,10.70
2018-10-21T10:59:23.144Z,10.81
2018-10-21T11:00:22.247Z,10.93
2018-10-21T11:01:22.268Z,10.78
2018-10-21T11:02:22.233Z,10.62
2018-10-21T11:03:23.116Z,10.65
2018-10-21T11:04:22.254Z,10.51
2018-10-21T11:05:22.352Z,10.63
2018-10-21T11:06:22.298Z,10.84
2018-10-21T11:07:22.240Z,11.42
2018-10-21T11:08:22.168Z,11.69
2018-10-21T11:09:22.191Z,11.74
2018-10-21T11:10:22.277Z,11.70
2018-10-21T11:11:22.133Z,11.46
2018-10-21T11:12:22.143Z,11.39
2018-10-21T11:13:22.124Z,11.16
2018-10-21T11:14:22.128Z,11.09
2018-10-21T11:15:22.613Z,11.16
2018-10-21T11:16:22.066Z,11.26
2018-10-21T11:17:22.038Z,11.23
2018-10-21T11:18:22.116Z,11.27
2018-10-21T11:19:22.073Z,11.46
2018-10-21T11:20:22.015Z,11.53
2018-10-21T11:21:22.137Z,11.90
2018-10-21T11:22:22.037Z,12.37
2018-10-21T11:23:21.971Z,12.91
2018-10-21T11:24:22.065Z,12.79
2018-10-21T11:25:21.960Z,12.62
2018-10-21T11:26:21.959Z,12.87
2018-10-21T11:27:21.966Z,12.43
2018-10-21T11:28:21.951Z,12.30
2018-10-21T11:29:21.974Z,12.89
2018-10-21T11:34:35.470Z,12.84
2018-10-21T11:35:19.287Z,12.74
2018-10-21T11:36:18.303Z,12.59
2018-10-21T11:37:18.444Z,12.70
2018-10-21T11:38:18.287Z,12.84
2018-10-21T11:39:18.266Z,12.76
2018-10-21T11:40:18.419Z,12.88
2018-10-21T11:41:18.257Z,12.92
2018-10-21T11:42:18.233Z,12.59
2018-10-21T11:43:18.338Z,12.16
2018-10-21T11:44:18.208Z,12.18
2018-10-21T11:45:18.233Z,12.12
2018-10-21T11:46:18.280Z,12.73
2018-10-21T11:47:18.201Z,13.32
2018-10-21T11:48:18.159Z,13.25
2018-10-21T11:49:18.147Z,13.04
2018-10-21T11:50:18.146Z,12.70
2018-10-21T11:51:18.153Z,12.48
2018-10-21T11:52:18.191Z,12.04
2018-10-21T11:53:18.114Z,11.96
2018-10-21T11:54:18.099Z,11.97
2018-10-21T11:55:18.119Z,11.90
2018-10-21T11:56:18.082Z,11.84
2018-10-21T11:57:18.097Z,11.85
2018-10-21T11:58:18.149Z,11.81
2018-10-21T11:59:18.053Z,12.04
2018-10-21T12:00:18.036Z,12.41
2018-10-21T12:01:18.085Z,12.52
2018-10-21T12:02:18.029Z,12.48
2018-10-21T12:03:17.993Z,12.19
2018-10-21T12:04:18.000Z,11.72
2018-10-21T12:05:17.988Z,11.82
2018-10-21T12:06:17.964Z,12.18
2018-10-21T12:07:18.012Z,12.56
2018-10-21T12:08:18.572Z,12.92
2018-10-21T12:09:17.944Z,12.80
2018-10-21T12:10:18.068Z,12.98
2018-10-21T12:11:21.642Z,13.32
2018-10-21T12:12:17.883Z,13.59
2018-10-21T12:13:17.879Z,13.35
2018-10-21T12:14:17.901Z,12.94
2018-10-21T12:15:17.916Z,12.23
2018-10-21T12:16:17.900Z,12.04
2018-10-21T12:17:17.842Z,12.19
2018-10-21T12:18:17.879Z,12.36
2018-10-21T12:19:17.973Z,12.59
2018-10-21T12:20:17.799Z,12.43
2018-10-21T12:21:17.792Z,12.44
2018-10-21T12:22:18.019Z,12.30
2018-10-21T12:23:17.824Z,12.33
2018-10-21T12:24:17.759Z,12.54
2018-10-21T12:25:17.921Z,12.55
2018-10-21T12:26:17.736Z,12.66
2018-10-21T12:27:17.729Z,12.34
2018-10-21T12:28:17.835Z,11.94
2018-10-21T12:29:17.754Z,12.21
2018-10-21T12:30:17.706Z,12.40
2018-10-21T12:31:17.798Z,12.76
2018-10-21T12:32:17.738Z,12.76
2018-10-21T12:33:17.715Z,12.61
2018-10-21T12:34:17.799Z,12.89
2018-10-21T12:35:17.691Z,12.80
2018-10-21T12:36:17.637Z,12.98
2018-10-21T12:37:17.774Z,12.91
2018-10-21T12:38:17.602Z,12.85
2018-10-21T12:39:17.619Z,13.01
2018-10-21T12:40:18.152Z,13.07
2018-10-21T12:41:17.600Z,12.85
2018-10-21T12:42:17.604Z,13.21
2018-10-21T12:43:17.818Z,13.51
2018-10-21T12:44:17.563Z,13.47
2018-10-21T12:45:17.566Z,13.75
2018-10-21T12:46:17.583Z,13.54
2018-10-21T12:47:17.534Z,13.06
2018-10-21T12:48:17.537Z,13.14
2018-10-21T12:49:17.597Z,13.39
2018-10-21T12:50:17.496Z,13.51
2018-10-21T12:51:17.470Z,12.92
2018-10-21T12:52:17.612Z,13.03
2018-10-21T12:53:17.474Z,12.77
2018-10-21T12:54:17.495Z,12.92
2018-10-21T12:55:17.508Z,12.99
2018-10-21T12:56:17.441Z,12.91
2018-10-21T12:57:17.423Z,12.89
2018-10-21T12:58:17.563Z,12.94
2018-10-21T12:59:17.390Z,13.12
2018-10-21T13:00:17.412Z,13.21
2018-10-21T13:01:17.446Z,13.06
2018-10-21T13:02:17.478Z,12.95
2018-10-21T13:03:17.355Z,13.06
2018-10-21T13:04:17.435Z,13.04
2018-10-21T13:05:17.338Z,12.76
2018-10-21T13:06:17.317Z,12.73
2018-10-21T13:07:17.385Z,12.55
2018-10-21T13:08:17.345Z,12.48
2018-10-21T13:09:17.289Z,12.58
2018-10-21T13:10:17.380Z,12.56
2018-10-21T13:11:17.263Z,12.71
2018-10-21T13:12:17.249Z,12.84
2018-10-21T13:13:17.248Z,12.96
2018-10-21T13:14:17.301Z,12.95
2018-10-21T13:15:17.245Z,13.04
2018-10-21T13:16:17.392Z,13.31
2018-10-21T13:17:17.193Z,13.38
2018-10-21T13:18:17.173Z,13.19
2018-10-21T13:19:17.289Z,12.98
2018-10-21T13:20:17.154Z,12.89
2018-10-21T13:21:17.194Z,12.85
2018-10-21T13:22:17.222Z,12.61
2018-10-21T13:23:17.161Z,12.87
2018-10-21T13:24:17.117Z,12.87
2018-10-21T13:25:17.146Z,12.92
2018-10-21T13:26:17.094Z,12.91
2018-10-21T13:27:17.080Z,12.62
2018-10-21T13:28:17.222Z,12.54
2018-10-21T13:29:17.067Z,12.52
2018-10-21T13:30:17.066Z,12.40
2018-10-21T13:31:17.097Z,12.46
2018-10-21T13:32:17.036Z,12.40
2018-10-21T13:33:17.048Z,12.46
2018-10-21T13:34:17.144Z,12.37
2018-10-21T13:35:16.993Z,12.38
2018-10-21T13:36:17.014Z,12.38
2018-10-21T13:37:17.059Z,12.19
2018-10-21T13:38:16.995Z,12.18
2018-10-21T13:39:16.952Z,12.08
2018-10-21T13:40:17.082Z,11.98
2018-10-21T13:41:16.937Z,11.74
2018-10-21T13:42:16.941Z,11.54
2018-10-21T13:43:17.016Z,11.56
2018-10-21T13:44:16.951Z,11.46
2018-10-21T13:45:16.987Z,11.42